sensor_id;sensor_type;location;lat;lon;timestamp;P1;durP1;ratioP1;P2;durP2;ratioP2
16813;SDS011;8524;57.650;11.926;2022-12-20T00:00:02;1.90;;;1.03;;
16813;SDS011;8524;57.650;11.926;2022-12-20T00:02:30;1.20;;;1.00;;
16813;SDS011;8524;57.650;11.926;2022-12-20T00:04:57;1.17;;;1.03;;
16813;SDS011;8524;57.650;11.926;2022-12-20T00:07:24;0.73;;;0.73;;
16813;SDS011;8524;57.650;11.926;2022-12-20T00:09:51;0.93;;;0.90;;
16813;SDS011;8524;57.650;11.926;2022-12-20T00:12:18;0.80;;;0.80;;
16813;SDS011;8524;57.650;11.926;2022-12-20T00:14:44;0.70;;;0.70;;
16813;SDS011;8524;57.650;11.926;2022-12-20T00:17:13;1.20;;;0.83;;
16813;SDS011;8524;57.650;11.926;2022-12-20T00:19:40;0.90;;;0.90;;
16813;SDS011;8524;57.650;11.926;2022-12-20T00:22:09;0.80;;;0.80;;
16813;SDS011;8524;57.650;11.926;2022-12-20T00:24:36;1.27;;;1.10;;
16813;SDS011;8524;57.650;11.926;2022-12-20T00:27:02;1.17;;;1.07;;
16813;SDS011;8524;57.650;11.926;2022-12-20T00:29:29;1.10;;;1.00;;
16813;SDS011;8524;57.650;11.926;2022-12-20T00:31:56;1.20;;;1.10;;
16813;SDS011;8524;57.650;11.926;2022-12-20T00:34:24;1.70;;;1.40;;
16813;SDS011;8524;57.650;11.926;2022-12-20T00:36:51;1.47;;;1.20;;
16813;SDS011;8524;57.650;11.926;2022-12-20T00:39:18;1.80;;;1.43;;
16813;SDS011;8524;57.650;11.926;2022-12-20T00:41:45;2.00;;;1.90;;
16813;SDS011;8524;57.650;11.926;2022-12-20T00:44:12;1.70;;;1.60;;
16813;SDS011;8524;57.650;11.926;2022-12-20T00:46:39;3.97;;;2.67;;
16813;SDS011;8524;57.650;11.926;2022-12-20T00:49:05;3.47;;;3.13;;
16813;SDS011;8524;57.650;11.926;2022-12-20T00:51:34;3.43;;;3.13;;
16813;SDS011;8524;57.650;11.926;2022-12-20T00:54:00;3.33;;;2.83;;
16813;SDS011;8524;57.650;11.926;2022-12-20T00:56:27;4.17;;;3.43;;
16813;SDS011;8524;57.650;11.926;2022-12-20T00:58:56;3.80;;;3.50;;
16813;SDS011;8524;57.650;11.926;2022-12-20T01:01:25;7.40;;;4.70;;
16813;SDS011;8524;57.650;11.926;2022-12-20T01:03:54;4.83;;;4.37;;
16813;SDS011;8524;57.650;11.926;2022-12-20T01:06:21;4.77;;;4.30;;
16813;SDS011;8524;57.650;11.926;2022-12-20T01:08:51;5.60;;;4.50;;
16813;SDS011;8524;57.650;11.926;2022-12-20T01:11:18;8.37;;;6.27;;
16813;SDS011;8524;57.650;11.926;2022-12-20T01:13:48;8.30;;;5.67;;
16813;SDS011;8524;57.650;11.926;2022-12-20T01:16:17;6.82;;;4.97;;
16813;SDS011;8524;57.650;11.926;2022-12-20T01:18:46;10.27;;;6.80;;
16813;SDS011;8524;57.650;11.926;2022-12-20T01:21:14;11.90;;;6.43;;
16813;SDS011;8524;57.650;11.926;2022-12-20T01:23:42;9.60;;;5.90;;
16813;SDS011;8524;57.650;11.926;2022-12-20T01:26:11;10.77;;;6.43;;
16813;SDS011;8524;57.650;11.926;2022-12-20T01:28:40;8.20;;;6.33;;
16813;SDS011;8524;57.650;11.926;2022-12-20T01:31:10;6.07;;;5.17;;
16813;SDS011;8524;57.650;11.926;2022-12-20T01:33:38;8.00;;;5.90;;
16813;SDS011;8524;57.650;11.926;2022-12-20T01:36:06;8.17;;;5.87;;
16813;SDS011;8524;57.650;11.926;2022-12-20T01:38:35;10.07;;;6.83;;
16813;SDS011;8524;57.650;11.926;2022-12-20T01:41:02;8.53;;;6.00;;
16813;SDS011;8524;57.650;11.926;2022-12-20T01:43:45;7.83;;;6.03;;
16813;SDS011;8524;57.650;11.926;2022-12-20T01:46:14;7.27;;;4.70;;
16813;SDS011;8524;57.650;11.926;2022-12-20T01:48:41;6.80;;;5.67;;
16813;SDS011;8524;57.650;11.926;2022-12-20T01:51:10;6.20;;;4.47;;
16813;SDS011;8524;57.650;11.926;2022-12-20T01:53:37;4.87;;;4.33;;
16813;SDS011;8524;57.650;11.926;2022-12-20T01:56:04;4.73;;;3.80;;
16813;SDS011;8524;57.650;11.926;2022-12-20T01:58:33;4.70;;;3.57;;
16813;SDS011;8524;57.650;11.926;2022-12-20T02:01:04;5.23;;;4.10;;
16813;SDS011;8524;57.650;11.926;2022-12-20T02:03:31;5.43;;;3.87;;
16813;SDS011;8524;57.650;11.926;2022-12-20T02:06:05;4.97;;;3.80;;
16813;SDS011;8524;57.650;11.926;2022-12-20T02:08:40;4.43;;;3.43;;
16813;SDS011;8524;57.650;11.926;2022-12-20T02:11:08;4.80;;;3.37;;
16813;SDS011;8524;57.650;11.926;2022-12-20T02:13:50;4.93;;;4.00;;
16813;SDS011;8524;57.650;11.926;2022-12-20T02:16:27;7.00;;;5.50;;
16813;SDS011;8524;57.650;11.926;2022-12-20T02:18:58;7.50;;;5.47;;
16813;SDS011;8524;57.650;11.926;2022-12-20T02:21:33;6.67;;;4.57;;
16813;SDS011;8524;57.650;11.926;2022-12-20T02:27:19;6.37;;;4.93;;
16813;SDS011;8524;57.650;11.926;2022-12-20T02:30:11;7.17;;;4.90;;
16813;SDS011;8524;57.650;11.926;2022-12-20T02:32:43;8.43;;;5.80;;
16813;SDS011;8524;57.650;11.926;2022-12-20T02:35:14;11.50;;;7.43;;
16813;SDS011;8524;57.650;11.926;2022-12-20T02:37:50;10.05;;;7.72;;
16813;SDS011;8524;57.650;11.926;2022-12-20T02:40:19;10.57;;;7.50;;
16813;SDS011;8524;57.650;11.926;2022-12-20T02:42:49;11.70;;;6.73;;
16813;SDS011;8524;57.650;11.926;2022-12-20T02:45:23;14.27;;;9.20;;
16813;SDS011;8524;57.650;11.926;2022-12-20T02:47:52;17.90;;;9.50;;
16813;SDS011;8524;57.650;11.926;2022-12-20T02:50:25;14.57;;;9.33;;
16813;SDS011;8524;57.650;11.926;2022-12-20T02:52:56;15.77;;;10.17;;
16813;SDS011;8524;57.650;11.926;2022-12-20T02:55:26;17.63;;;11.03;;
16813;SDS011;8524;57.650;11.926;2022-12-20T02:58:04;12.13;;;8.47;;
16813;SDS011;8524;57.650;11.926;2022-12-20T03:00:37;17.57;;;10.70;;
16813;SDS011;8524;57.650;11.926;2022-12-20T03:03:07;14.97;;;9.20;;
16813;SDS011;8524;57.650;11.926;2022-12-20T03:05:49;17.70;;;9.97;;
16813;SDS011;8524;57.650;11.926;2022-12-20T03:08:17;18.77;;;11.97;;
16813;SDS011;8524;57.650;11.926;2022-12-20T03:10:45;20.90;;;10.63;;
16813;SDS011;8524;57.650;11.926;2022-12-20T03:13:13;22.27;;;12.30;;
16813;SDS011;8524;57.650;11.926;2022-12-20T03:15:41;14.03;;;9.43;;
16813;SDS011;8524;57.650;11.926;2022-12-20T03:18:08;14.73;;;9.83;;
16813;SDS011;8524;57.650;11.926;2022-12-20T03:20:35;19.97;;;11.43;;
16813;SDS011;8524;57.650;11.926;2022-12-20T03:23:02;13.23;;;8.93;;
16813;SDS011;8524;57.650;11.926;2022-12-20T03:25:29;13.50;;;9.97;;
16813;SDS011;8524;57.650;11.926;2022-12-20T03:27:56;17.33;;;11.07;;
16813;SDS011;8524;57.650;11.926;2022-12-20T03:30:23;22.20;;;11.83;;
16813;SDS011;8524;57.650;11.926;2022-12-20T03:32:51;17.10;;;11.03;;
16813;SDS011;8524;57.650;11.926;2022-12-20T03:35:18;16.10;;;10.77;;
16813;SDS011;8524;57.650;11.926;2022-12-20T03:37:45;20.10;;;11.00;;
16813;SDS011;8524;57.650;11.926;2022-12-20T03:40:12;16.57;;;10.00;;
16813;SDS011;8524;57.650;11.926;2022-12-20T03:42:40;14.93;;;10.40;;
16813;SDS011;8524;57.650;11.926;2022-12-20T03:45:07;19.27;;;11.27;;
16813;SDS011;8524;57.650;11.926;2022-12-20T03:47:34;20.43;;;11.40;;
16813;SDS011;8524;57.650;11.926;2022-12-20T03:50:03;16.70;;;10.53;;
16813;SDS011;8524;57.650;11.926;2022-12-20T03:52:31;15.33;;;10.83;;
16813;SDS011;8524;57.650;11.926;2022-12-20T03:54:58;20.93;;;12.40;;
16813;SDS011;8524;57.650;11.926;2022-12-20T03:57:25;22.53;;;13.13;;
16813;SDS011;8524;57.650;11.926;2022-12-20T03:59:52;23.27;;;12.93;;
16813;SDS011;8524;57.650;11.926;2022-12-20T04:02:19;20.20;;;13.33;;
16813;SDS011;8524;57.650;11.926;2022-12-20T04:04:46;19.97;;;13.53;;
16813;SDS011;8524;57.650;11.926;2022-12-20T04:07:15;20.97;;;12.07;;
16813;SDS011;8524;57.650;11.926;2022-12-20T04:09:42;20.73;;;12.70;;
16813;SDS011;8524;57.650;11.926;2022-12-20T04:12:09;16.97;;;11.60;;
16813;SDS011;8524;57.650;11.926;2022-12-20T04:14:35;18.57;;;13.70;;
16813;SDS011;8524;57.650;11.926;2022-12-20T04:17:02;20.63;;;13.33;;
16813;SDS011;8524;57.650;11.926;2022-12-20T04:19:30;17.07;;;12.30;;
16813;SDS011;8524;57.650;11.926;2022-12-20T04:21:56;24.07;;;13.33;;
16813;SDS011;8524;57.650;11.926;2022-12-20T04:24:26;21.10;;;13.20;;
16813;SDS011;8524;57.650;11.926;2022-12-20T04:26:53;19.97;;;13.43;;
16813;SDS011;8524;57.650;11.926;2022-12-20T04:29:20;30.67;;;14.60;;
16813;SDS011;8524;57.650;11.926;2022-12-20T04:31:46;20.33;;;13.60;;
16813;SDS011;8524;57.650;11.926;2022-12-20T04:34:13;25.37;;;13.40;;
16813;SDS011;8524;57.650;11.926;2022-12-20T04:36:40;30.30;;;15.00;;
16813;SDS011;8524;57.650;11.926;2022-12-20T04:39:07;18.87;;;11.93;;
16813;SDS011;8524;57.650;11.926;2022-12-20T04:41:35;20.43;;;12.17;;
16813;SDS011;8524;57.650;11.926;2022-12-20T04:44:02;22.10;;;13.37;;
16813;SDS011;8524;57.650;11.926;2022-12-20T04:46:29;34.60;;;15.23;;
16813;SDS011;8524;57.650;11.926;2022-12-20T04:48:57;27.00;;;14.00;;
16813;SDS011;8524;57.650;11.926;2022-12-20T04:51:24;25.17;;;13.63;;
16813;SDS011;8524;57.650;11.926;2022-12-20T04:53:51;23.77;;;13.40;;
16813;SDS011;8524;57.650;11.926;2022-12-20T04:56:18;36.87;;;14.60;;
16813;SDS011;8524;57.650;11.926;2022-12-20T04:58:48;27.80;;;14.47;;
16813;SDS011;8524;57.650;11.926;2022-12-20T05:01:17;23.73;;;13.60;;
16813;SDS011;8524;57.650;11.926;2022-12-20T05:03:44;40.70;;;14.60;;
16813;SDS011;8524;57.650;11.926;2022-12-20T05:06:12;37.73;;;16.33;;
16813;SDS011;8524;57.650;11.926;2022-12-20T05:08:39;22.93;;;12.60;;
16813;SDS011;8524;57.650;11.926;2022-12-20T05:11:06;32.60;;;14.70;;
16813;SDS011;8524;57.650;11.926;2022-12-20T05:13:33;20.30;;;12.87;;
16813;SDS011;8524;57.650;11.926;2022-12-20T05:16:02;35.80;;;14.93;;
16813;SDS011;8524;57.650;11.926;2022-12-20T05:18:29;27.40;;;14.03;;
16813;SDS011;8524;57.650;11.926;2022-12-20T05:20:56;22.43;;;13.23;;
16813;SDS011;8524;57.650;11.926;2022-12-20T05:23:42;33.43;;;14.80;;
16813;SDS011;8524;57.650;11.926;2022-12-20T05:26:26;25.37;;;12.90;;
16813;SDS011;8524;57.650;11.926;2022-12-20T05:28:56;33.07;;;14.07;;
16813;SDS011;8524;57.650;11.926;2022-12-20T05:31:24;31.57;;;13.50;;
16813;SDS011;8524;57.650;11.926;2022-12-20T05:33:51;26.20;;;14.10;;
16813;SDS011;8524;57.650;11.926;2022-12-20T05:36:19;36.13;;;14.83;;
16813;SDS011;8524;57.650;11.926;2022-12-20T05:38:46;24.57;;;14.70;;
16813;SDS011;8524;57.650;11.926;2022-12-20T05:41:13;24.20;;;14.00;;
16813;SDS011;8524;57.650;11.926;2022-12-20T05:43:40;23.00;;;12.73;;
16813;SDS011;8524;57.650;11.926;2022-12-20T05:46:07;34.10;;;14.47;;
16813;SDS011;8524;57.650;11.926;2022-12-20T05:48:36;49.07;;;17.37;;
16813;SDS011;8524;57.650;11.926;2022-12-20T05:51:03;27.57;;;15.17;;
16813;SDS011;8524;57.650;11.926;2022-12-20T05:53:30;36.00;;;15.90;;
16813;SDS011;8524;57.650;11.926;2022-12-20T05:55:57;25.50;;;13.33;;
16813;SDS011;8524;57.650;11.926;2022-12-20T05:58:25;29.40;;;14.83;;
16813;SDS011;8524;57.650;11.926;2022-12-20T06:00:52;30.03;;;15.73;;
16813;SDS011;8524;57.650;11.926;2022-12-20T06:03:20;32.13;;;16.03;;
16813;SDS011;8524;57.650;11.926;2022-12-20T06:05:48;41.27;;;16.47;;
16813;SDS011;8524;57.650;11.926;2022-12-20T06:08:15;40.17;;;17.30;;
16813;SDS011;8524;57.650;11.926;2022-12-20T06:10:42;44.10;;;17.27;;
16813;SDS011;8524;57.650;11.926;2022-12-20T06:13:09;39.90;;;15.73;;
16813;SDS011;8524;57.650;11.926;2022-12-20T06:15:36;35.87;;;16.67;;
16813;SDS011;8524;57.650;11.926;2022-12-20T06:18:03;57.13;;;19.23;;
16813;SDS011;8524;57.650;11.926;2022-12-20T06:20:31;41.50;;;17.27;;
16813;SDS011;8524;57.650;11.926;2022-12-20T06:22:59;43.27;;;18.03;;
16813;SDS011;8524;57.650;11.926;2022-12-20T06:25:27;53.47;;;19.27;;
16813;SDS011;8524;57.650;11.926;2022-12-20T06:27:53;52.47;;;19.90;;
16813;SDS011;8524;57.650;11.926;2022-12-20T06:30:21;38.07;;;16.30;;
16813;SDS011;8524;57.650;11.926;2022-12-20T06:32:48;40.77;;;18.73;;
16813;SDS011;8524;57.650;11.926;2022-12-20T06:35:15;47.43;;;18.33;;
16813;SDS011;8524;57.650;11.926;2022-12-20T06:37:42;36.30;;;16.90;;
16813;SDS011;8524;57.650;11.926;2022-12-20T06:40:11;47.90;;;19.53;;
16813;SDS011;8524;57.650;11.926;2022-12-20T06:42:39;49.53;;;19.83;;
16813;SDS011;8524;57.650;11.926;2022-12-20T06:45:06;51.20;;;20.80;;
16813;SDS011;8524;57.650;11.926;2022-12-20T06:47:34;52.67;;;20.13;;
16813;SDS011;8524;57.650;11.926;2022-12-20T06:50:01;34.63;;;17.73;;
16813;SDS011;8524;57.650;11.926;2022-12-20T06:52:28;40.17;;;17.40;;
16813;SDS011;8524;57.650;11.926;2022-12-20T06:54:55;43.17;;;19.00;;
16813;SDS011;8524;57.650;11.926;2022-12-20T06:57:23;54.27;;;20.40;;
16813;SDS011;8524;57.650;11.926;2022-12-20T06:59:50;54.53;;;22.33;;
16813;SDS011;8524;57.650;11.926;2022-12-20T07:02:17;37.67;;;16.90;;
16813;SDS011;8524;57.650;11.926;2022-12-20T07:04:44;48.13;;;18.63;;
16813;SDS011;8524;57.650;11.926;2022-12-20T07:07:11;33.10;;;15.77;;
16813;SDS011;8524;57.650;11.926;2022-12-20T07:09:38;39.97;;;17.87;;
16813;SDS011;8524;57.650;11.926;2022-12-20T07:12:06;36.07;;;15.93;;
16813;SDS011;8524;57.650;11.926;2022-12-20T07:14:35;44.97;;;18.10;;
16813;SDS011;8524;57.650;11.926;2022-12-20T07:17:02;52.10;;;19.93;;
16813;SDS011;8524;57.650;11.926;2022-12-20T07:19:29;52.93;;;20.23;;
16813;SDS011;8524;57.650;11.926;2022-12-20T07:21:56;36.63;;;17.67;;
16813;SDS011;8524;57.650;11.926;2022-12-20T07:24:23;39.23;;;17.97;;
16813;SDS011;8524;57.650;11.926;2022-12-20T07:26:50;50.47;;;20.77;;
16813;SDS011;8524;57.650;11.926;2022-12-20T07:29:17;48.97;;;21.37;;
16813;SDS011;8524;57.650;11.926;2022-12-20T07:31:45;58.33;;;22.93;;
16813;SDS011;8524;57.650;11.926;2022-12-20T07:34:12;44.93;;;20.43;;
16813;SDS011;8524;57.650;11.926;2022-12-20T07:36:39;41.00;;;19.60;;
16813;SDS011;8524;57.650;11.926;2022-12-20T07:39:06;37.43;;;15.63;;
16813;SDS011;8524;57.650;11.926;2022-12-20T07:41:33;46.37;;;19.73;;
16813;SDS011;8524;57.650;11.926;2022-12-20T07:44:00;41.80;;;20.17;;
16813;SDS011;8524;57.650;11.926;2022-12-20T07:46:27;37.07;;;18.87;;
16813;SDS011;8524;57.650;11.926;2022-12-20T07:48:56;34.73;;;17.70;;
16813;SDS011;8524;57.650;11.926;2022-12-20T07:51:23;34.10;;;17.77;;
16813;SDS011;8524;57.650;11.926;2022-12-20T07:53:53;32.83;;;18.20;;
16813;SDS011;8524;57.650;11.926;2022-12-20T07:56:24;59.90;;;22.57;;
16813;SDS011;8524;57.650;11.926;2022-12-20T07:58:52;32.83;;;17.70;;
16813;SDS011;8524;57.650;11.926;2022-12-20T08:01:23;41.87;;;20.13;;
16813;SDS011;8524;57.650;11.926;2022-12-20T08:03:52;37.23;;;18.17;;
16813;SDS011;8524;57.650;11.926;2022-12-20T08:06:24;33.77;;;17.40;;
16813;SDS011;8524;57.650;11.926;2022-12-20T08:08:52;48.00;;;20.50;;
16813;SDS011;8524;57.650;11.926;2022-12-20T08:11:22;39.93;;;18.77;;
16813;SDS011;8524;57.650;11.926;2022-12-20T08:13:51;37.67;;;19.07;;
16813;SDS011;8524;57.650;11.926;2022-12-20T08:16:18;34.47;;;18.03;;
16813;SDS011;8524;57.650;11.926;2022-12-20T08:18:45;53.37;;;23.27;;
16813;SDS011;8524;57.650;11.926;2022-12-20T08:21:13;36.20;;;17.63;;
16813;SDS011;8524;57.650;11.926;2022-12-20T08:23:40;32.93;;;15.53;;
16813;SDS011;8524;57.650;11.926;2022-12-20T08:26:07;38.17;;;17.10;;
16813;SDS011;8524;57.650;11.926;2022-12-20T08:28:34;25.23;;;14.57;;
16813;SDS011;8524;57.650;11.926;2022-12-20T08:31:02;33.87;;;16.73;;
16813;SDS011;8524;57.650;11.926;2022-12-20T08:33:29;26.23;;;14.10;;
16813;SDS011;8524;57.650;11.926;2022-12-20T08:35:57;25.73;;;14.97;;
16813;SDS011;8524;57.650;11.926;2022-12-20T08:38:26;39.37;;;15.93;;
16813;SDS011;8524;57.650;11.926;2022-12-20T08:40:55;30.30;;;14.77;;
16813;SDS011;8524;57.650;11.926;2022-12-20T08:43:26;27.77;;;14.47;;
16813;SDS011;8524;57.650;11.926;2022-12-20T08:45:53;42.07;;;16.57;;
16813;SDS011;8524;57.650;11.926;2022-12-20T08:48:21;39.40;;;17.93;;
16813;SDS011;8524;57.650;11.926;2022-12-20T08:50:52;53.23;;;20.10;;
16813;SDS011;8524;57.650;11.926;2022-12-20T08:53:20;35.97;;;17.47;;
16813;SDS011;8524;57.650;11.926;2022-12-20T08:55:49;30.83;;;16.63;;
16813;SDS011;8524;57.650;11.926;2022-12-20T08:58:16;37.17;;;19.33;;
16813;SDS011;8524;57.650;11.926;2022-12-20T09:00:43;51.27;;;22.00;;
16813;SDS011;8524;57.650;11.926;2022-12-20T09:03:10;34.27;;;19.27;;
16813;SDS011;8524;57.650;11.926;2022-12-20T09:05:42;38.70;;;19.40;;
16813;SDS011;8524;57.650;11.926;2022-12-20T09:08:10;48.33;;;21.43;;
16813;SDS011;8524;57.650;11.926;2022-12-20T09:10:37;42.83;;;20.33;;
16813;SDS011;8524;57.650;11.926;2022-12-20T09:13:05;26.77;;;17.00;;
16813;SDS011;8524;57.650;11.926;2022-12-20T09:15:32;34.50;;;19.50;;
16813;SDS011;8524;57.650;11.926;2022-12-20T09:18:00;28.17;;;18.77;;
16813;SDS011;8524;57.650;11.926;2022-12-20T09:20:27;38.10;;;19.90;;
16813;SDS011;8524;57.650;11.926;2022-12-20T09:22:54;36.33;;;21.57;;
16813;SDS011;8524;57.650;11.926;2022-12-20T09:25:23;31.90;;;18.93;;
16813;SDS011;8524;57.650;11.926;2022-12-20T09:27:50;38.93;;;20.17;;
16813;SDS011;8524;57.650;11.926;2022-12-20T09:30:20;43.23;;;21.83;;
16813;SDS011;8524;57.650;11.926;2022-12-20T09:32:48;43.27;;;21.07;;
16813;SDS011;8524;57.650;11.926;2022-12-20T09:35:15;41.47;;;22.17;;
16813;SDS011;8524;57.650;11.926;2022-12-20T09:37:42;38.20;;;21.70;;
16813;SDS011;8524;57.650;11.926;2022-12-20T09:40:13;33.07;;;19.83;;
16813;SDS011;8524;57.650;11.926;2022-12-20T09:42:44;31.03;;;19.27;;
16813;SDS011;8524;57.650;11.926;2022-12-20T09:45:14;28.30;;;18.20;;
16813;SDS011;8524;57.650;11.926;2022-12-20T09:47:48;37.50;;;20.10;;
16813;SDS011;8524;57.650;11.926;2022-12-20T09:50:16;31.93;;;18.73;;
16813;SDS011;8524;57.650;11.926;2022-12-20T09:52:46;23.83;;;15.53;;
16813;SDS011;8524;57.650;11.926;2022-12-20T09:55:26;25.93;;;16.57;;
16813;SDS011;8524;57.650;11.926;2022-12-20T10:00:49;16.43;;;11.93;;
16813;SDS011;8524;57.650;11.926;2022-12-20T10:03:19;16.37;;;12.30;;
16813;SDS011;8524;57.650;11.926;2022-12-20T10:05:48;15.33;;;11.13;;
16813;SDS011;8524;57.650;11.926;2022-12-20T10:08:22;15.93;;;11.60;;
16813;SDS011;8524;57.650;11.926;2022-12-20T10:11:01;11.07;;;8.20;;
16813;SDS011;8524;57.650;11.926;2022-12-20T10:13:37;7.87;;;6.47;;
16813;SDS011;8524;57.650;11.926;2022-12-20T10:16:18;10.80;;;7.83;;
16813;SDS011;8524;57.650;11.926;2022-12-20T10:19:02;7.70;;;6.73;;
16813;SDS011;8524;57.650;11.926;2022-12-20T10:21:42;6.50;;;5.43;;
16813;SDS011;8524;57.650;11.926;2022-12-20T10:24:16;7.07;;;4.67;;
16813;SDS011;8524;57.650;11.926;2022-12-20T10:26:44;5.47;;;4.37;;
16813;SDS011;8524;57.650;11.926;2022-12-20T10:29:14;3.63;;;3.33;;
16813;SDS011;8524;57.650;11.926;2022-12-20T10:31:42;3.60;;;3.30;;
16813;SDS011;8524;57.650;11.926;2022-12-20T10:34:10;3.23;;;2.93;;
16813;SDS011;8524;57.650;11.926;2022-12-20T10:36:37;3.30;;;3.00;;
16813;SDS011;8524;57.650;11.926;2022-12-20T10:39:05;2.77;;;2.43;;
16813;SDS011;8524;57.650;11.926;2022-12-20T10:41:45;3.27;;;2.80;;
16813;SDS011;8524;57.650;11.926;2022-12-20T10:44:15;2.57;;;2.37;;
16813;SDS011;8524;57.650;11.926;2022-12-20T10:46:46;2.47;;;2.27;;
16813;SDS011;8524;57.650;11.926;2022-12-20T10:49:28;3.00;;;2.10;;
16813;SDS011;8524;57.650;11.926;2022-12-20T10:51:57;2.80;;;2.30;;
16813;SDS011;8524;57.650;11.926;2022-12-20T10:54:28;2.37;;;2.17;;
16813;SDS011;8524;57.650;11.926;2022-12-20T10:56:57;2.60;;;2.27;;
16813;SDS011;8524;57.650;11.926;2022-12-20T10:59:31;2.53;;;2.30;;
16813;SDS011;8524;57.650;11.926;2022-12-20T11:02:01;3.57;;;2.23;;
16813;SDS011;8524;57.650;11.926;2022-12-20T11:04:57;2.40;;;2.20;;
16813;SDS011;8524;57.650;11.926;2022-12-20T11:07:25;2.07;;;1.87;;
16813;SDS011;8524;57.650;11.926;2022-12-20T11:09:54;2.30;;;2.10;;
16813;SDS011;8524;57.650;11.926;2022-12-20T11:12:25;2.47;;;2.10;;
16813;SDS011;8524;57.650;11.926;2022-12-20T11:15:06;1.87;;;1.77;;
16813;SDS011;8524;57.650;11.926;2022-12-20T11:17:35;2.73;;;1.70;;
16813;SDS011;8524;57.650;11.926;2022-12-20T11:20:10;1.80;;;1.70;;
16813;SDS011;8524;57.650;11.926;2022-12-20T11:22:53;1.63;;;1.53;;
16813;SDS011;8524;57.650;11.926;2022-12-20T11:25:35;2.00;;;1.90;;
16813;SDS011;8524;57.650;11.926;2022-12-20T11:28:16;2.10;;;1.90;;
16813;SDS011;8524;57.650;11.926;2022-12-20T11:31:00;1.90;;;1.80;;
16813;SDS011;8524;57.650;11.926;2022-12-20T11:33:47;2.30;;;2.10;;
16813;SDS011;8524;57.650;11.926;2022-12-20T11:36:27;2.47;;;2.00;;
16813;SDS011;8524;57.650;11.926;2022-12-20T11:39:04;2.23;;;2.03;;
16813;SDS011;8524;57.650;11.926;2022-12-20T11:41:42;2.57;;;2.37;;
16813;SDS011;8524;57.650;11.926;2022-12-20T11:44:16;3.10;;;2.40;;
16813;SDS011;8524;57.650;11.926;2022-12-20T11:46:57;3.00;;;2.80;;
16813;SDS011;8524;57.650;11.926;2022-12-20T11:49:47;2.60;;;2.40;;
16813;SDS011;8524;57.650;11.926;2022-12-20T11:52:32;3.53;;;3.22;;
16813;SDS011;8524;57.650;11.926;2022-12-20T11:55:04;3.90;;;3.60;;
16813;SDS011;8524;57.650;11.926;2022-12-20T11:57:45;3.30;;;2.97;;
16813;SDS011;8524;57.650;11.926;2022-12-20T12:00:20;5.20;;;3.70;;
16813;SDS011;8524;57.650;11.926;2022-12-20T12:02:49;4.40;;;3.97;;
16813;SDS011;8524;57.650;11.926;2022-12-20T12:05:21;6.07;;;4.40;;
16813;SDS011;8524;57.650;11.926;2022-12-20T12:07:54;4.33;;;3.93;;
16813;SDS011;8524;57.650;11.926;2022-12-20T12:10:28;5.87;;;5.03;;
16813;SDS011;8524;57.650;11.926;2022-12-20T12:13:01;6.67;;;6.07;;
16813;SDS011;8524;57.650;11.926;2022-12-20T12:15:37;5.70;;;5.20;;
16813;SDS011;8524;57.650;11.926;2022-12-20T12:18:14;5.20;;;4.73;;
16813;SDS011;8524;57.650;11.926;2022-12-20T12:20:47;5.23;;;4.73;;
16813;SDS011;8524;57.650;11.926;2022-12-20T12:23:23;4.83;;;4.33;;
16813;SDS011;8524;57.650;11.926;2022-12-20T12:25:56;6.63;;;4.87;;
16813;SDS011;8524;57.650;11.926;2022-12-20T12:28:26;4.73;;;4.27;;
16813;SDS011;8524;57.650;11.926;2022-12-20T12:30:56;4.60;;;4.20;;
16813;SDS011;8524;57.650;11.926;2022-12-20T12:33:29;4.60;;;4.10;;
16813;SDS011;8524;57.650;11.926;2022-12-20T12:39:16;4.50;;;4.10;;
16813;SDS011;8524;57.650;11.926;2022-12-20T12:44:58;4.50;;;4.10;;
16813;SDS011;8524;57.650;11.926;2022-12-20T12:47:28;5.37;;;4.30;;
16813;SDS011;8524;57.650;11.926;2022-12-20T12:50:02;4.40;;;4.00;;
16813;SDS011;8524;57.650;11.926;2022-12-20T12:55:38;4.47;;;4.07;;
16813;SDS011;8524;57.650;11.926;2022-12-20T12:58:13;3.73;;;3.43;;
16813;SDS011;8524;57.650;11.926;2022-12-20T13:00:56;3.83;;;3.43;;
16813;SDS011;8524;57.650;11.926;2022-12-20T13:03:34;4.63;;;4.23;;
16813;SDS011;8524;57.650;11.926;2022-12-20T13:06:54;4.20;;;3.63;;
16813;SDS011;8524;57.650;11.926;2022-12-20T13:09:38;4.53;;;4.00;;
16813;SDS011;8524;57.650;11.926;2022-12-20T13:18:30;3.07;;;2.87;;
16813;SDS011;8524;57.650;11.926;2022-12-20T13:27:11;3.70;;;3.40;;
16813;SDS011;8524;57.650;11.926;2022-12-20T13:29:50;4.10;;;3.57;;
16813;SDS011;8524;57.650;11.926;2022-12-20T13:35:29;3.70;;;3.40;;
16813;SDS011;8524;57.650;11.926;2022-12-20T13:41:10;5.80;;;5.20;;
16813;SDS011;8524;57.650;11.926;2022-12-20T13:43:45;6.03;;;4.83;;
16813;SDS011;8524;57.650;11.926;2022-12-20T13:46:17;6.53;;;5.77;;
16813;SDS011;8524;57.650;11.926;2022-12-20T13:48:51;5.93;;;5.37;;
16813;SDS011;8524;57.650;11.926;2022-12-20T13:51:20;6.40;;;5.70;;
16813;SDS011;8524;57.650;11.926;2022-12-20T13:53:50;5.63;;;5.13;;
16813;SDS011;8524;57.650;11.926;2022-12-20T13:56:20;8.83;;;6.93;;
16813;SDS011;8524;57.650;11.926;2022-12-20T13:59:03;6.63;;;5.40;;
16813;SDS011;8524;57.650;11.926;2022-12-20T14:01:32;8.23;;;6.77;;
16813;SDS011;8524;57.650;11.926;2022-12-20T14:04:03;7.20;;;6.50;;
16813;SDS011;8524;57.650;11.926;2022-12-20T14:06:32;8.77;;;7.10;;
16813;SDS011;8524;57.650;11.926;2022-12-20T14:08:59;7.90;;;6.73;;
16813;SDS011;8524;57.650;11.926;2022-12-20T14:11:29;8.77;;;7.07;;
16813;SDS011;8524;57.650;11.926;2022-12-20T14:13:57;9.60;;;8.70;;
16813;SDS011;8524;57.650;11.926;2022-12-20T14:16:27;9.17;;;8.10;;
16813;SDS011;8524;57.650;11.926;2022-12-20T14:19:01;12.03;;;8.80;;
16813;SDS011;8524;57.650;11.926;2022-12-20T14:21:30;10.43;;;8.97;;
16813;SDS011;8524;57.650;11.926;2022-12-20T14:24:01;11.23;;;9.57;;
16813;SDS011;8524;57.650;11.926;2022-12-20T14:26:31;11.40;;;10.23;;
16813;SDS011;8524;57.650;11.926;2022-12-20T14:29:08;14.63;;;12.00;;
16813;SDS011;8524;57.650;11.926;2022-12-20T14:31:37;14.93;;;11.97;;
16813;SDS011;8524;57.650;11.926;2022-12-20T14:34:10;15.60;;;11.60;;
16813;SDS011;8524;57.650;11.926;2022-12-20T14:36:42;12.07;;;10.20;;
16813;SDS011;8524;57.650;11.926;2022-12-20T14:39:23;9.63;;;8.43;;
16813;SDS011;8524;57.650;11.926;2022-12-20T14:41:56;13.00;;;10.00;;
16813;SDS011;8524;57.650;11.926;2022-12-20T14:44:24;12.67;;;9.50;;
16813;SDS011;8524;57.650;11.926;2022-12-20T14:46:52;10.83;;;9.47;;
16813;SDS011;8524;57.650;11.926;2022-12-20T14:49:22;9.90;;;8.80;;
16813;SDS011;8524;57.650;11.926;2022-12-20T14:52:05;9.67;;;8.60;;
16813;SDS011;8524;57.650;11.926;2022-12-20T14:54:41;11.33;;;8.77;;
16813;SDS011;8524;57.650;11.926;2022-12-20T14:57:10;10.20;;;9.07;;
16813;SDS011;8524;57.650;11.926;2022-12-20T14:59:54;10.53;;;9.17;;
16813;SDS011;8524;57.650;11.926;2022-12-20T15:02:33;13.80;;;10.23;;
16813;SDS011;8524;57.650;11.926;2022-12-20T15:05:06;11.03;;;9.27;;
16813;SDS011;8524;57.650;11.926;2022-12-20T15:07:49;12.47;;;10.60;;
16813;SDS011;8524;57.650;11.926;2022-12-20T15:10:16;15.57;;;12.20;;
16813;SDS011;8524;57.650;11.926;2022-12-20T15:12:43;16.20;;;11.83;;
16813;SDS011;8524;57.650;11.926;2022-12-20T15:15:11;16.23;;;13.00;;
16813;SDS011;8524;57.650;11.926;2022-12-20T15:17:40;15.20;;;12.37;;
16813;SDS011;8524;57.650;11.926;2022-12-20T15:20:10;14.60;;;12.33;;
16813;SDS011;8524;57.650;11.926;2022-12-20T15:22:38;17.20;;;13.33;;
16813;SDS011;8524;57.650;11.926;2022-12-20T15:25:09;16.40;;;11.80;;